Time;durP1;ratioP1;P1;durP2;ratioP2;P2;SDS_P1;SDS_P2;PMS_P1;PMS_P2;Temp;Humidity;BMP_temperature;BMP_pressure;BME280_temperature;BME280_humidity;BME280_pressure;Samples;Min_cycle;Max_cycle;Signal;HPM_P1;HPM_P2
2021/01/08 00:05:13;;;;;;;36.93;19.40;;;;;;;-0.09;87.50;98174.86;489810;1147;104789;-42
2021/01/08 00:15:17;;;;;;;40.07;19.40;;;;;;;-0.10;88.16;98183.64;489668;1148;104600;-40
2021/01/08 00:25:21;;;;;;;44.20;21.77;;;;;;;-0.12;87.50;98177.81;489800;1148;104631;-40
2021/01/08 00:35:26;;;;;;;54.97;23.83;;;;;;;-0.15;87.98;98181.56;489752;1148;104484;-40
2021/01/08 00:45:32;;;;;;;56.47;26.97;;;;;;;-0.12;87.87;98183.81;489567;1148;105671;-40
2021/01/08 00:55:38;;;;;;;59.00;26.10;;;;;;;-0.14;87.75;98184.97;489564;1148;104470;-40
2021/01/08 01:05:42;;;;;;;47.50;23.80;;;;;;;-0.16;87.74;98194.73;489687;1148;104874;-40
2021/01/08 01:15:47;;;;;;;38.43;20.33;;;;;;;-0.17;88.09;98199.12;489989;1148;104875;-41
2021/01/08 01:25:52;;;;;;;46.10;21.37;;;;;;;-0.18;88.03;98189.71;489813;1148;104432;-40
2021/01/08 01:35:59;;;;;;;43.13;20.07;;;;;;;-0.19;87.97;98195.89;489891;1148;104930;-41
2021/01/08 01:46:04;;;;;;;59.07;25.73;;;;;;;-0.18;88.14;98189.71;489606;1148;104511;-42
2021/01/08 01:56:09;;;;;;;45.20;24.10;;;;;;;-0.19;87.40;98188.09;489847;1148;104585;-42
2021/01/08 02:06:16;;;;;;;43.30;21.65;;;;;;;-0.23;87.62;98179.03;489917;1148;104946;-43
2021/01/08 02:16:23;;;;;;;46.47;22.67;;;;;;;-0.22;87.30;98191.03;489784;1148;104893;-40
2021/01/08 02:26:28;;;;;;;55.15;24.45;;;;;;;-0.19;87.97;98188.09;489630;1148;104527;-40
2021/01/08 02:46:57;;;;;;;52.10;24.05;;;;;;;-0.18;87.32;98178.51;489936;1148;104925;-41
2021/01/08 02:57:02;;;;;;;45.60;21.75;;;;;;;-0.14;87.60;98167.59;489734;1148;104540;-40
2021/01/08 03:07:08;;;;;;;54.60;25.50;;;;;;;-0.12;87.92;98172.61;491034;1109;105296;-40
2021/01/08 03:17:12;;;;;;;41.37;20.13;;;;;;;-0.24;87.13;98172.19;489659;1148;104940;-44
2021/01/08 03:27:17;;;;;;;49.43;23.27;;;;;;;-0.28;87.40;98163.13;489851;1148;104519;-40
2021/01/08 03:37:22;;;;;;;32.13;19.03;;;;;;;-0.37;87.20;98162.38;489805;1148;104630;-41
2021/01/08 03:47:27;;;;;;;49.27;25.63;;;;;;;-0.43;87.87;98165.66;489781;1149;104527;-40
2021/01/08 03:57:32;;;;;;;42.93;21.77;;;;;;;-0.45;87.83;98161.63;489894;1149;104534;-42
2021/01/08 04:07:36;;;;;;;41.30;21.00;;;;;;;-0.42;87.17;98158.68;489639;1149;104884;-40
2021/01/08 04:17:41;;;;;;;44.70;21.23;;;;;;;-0.45;87.17;98159.03;489775;1150;104823;-41
2021/01/08 04:27:45;;;;;;;46.35;22.15;;;;;;;-0.43;87.88;98160.47;489831;1149;104627;-43
2021/01/08 04:37:50;;;;;;;53.27;24.23;;;;;;;-0.40;87.85;98161.91;489905;1150;104935;-41
2021/01/08 04:58:15;;;;;;;37.87;19.87;;;;;;;-0.45;86.98;98165.03;489900;1148;105327;-43
2021/01/08 05:08:20;;;;;;;45.77;23.57;;;;;;;-0.41;87.89;98157.70;489735;1150;104448;-40
2021/01/08 05:18:31;;;;;;;38.77;20.23;;;;;;;-0.35;87.60;98164.80;489754;1148;104944;-41
2021/01/08 05:28:36;;;;;;;48.50;24.10;;;;;;;-0.37;87.89;98166.77;489825;1149;105000;-42
2021/01/08 05:38:46;;;;;;;47.83;23.13;;;;;;;-0.45;87.39;98172.02;489983;1148;104521;-42
2021/01/08 05:48:59;;;;;;;47.40;23.80;;;;;;;-0.44;87.31;98171.03;489746;1149;104451;-42
2021/01/08 05:59:04;;;;;;;56.25;29.05;;;;;;;-0.42;87.07;98180.27;489859;1148;104839;-41
2021/01/08 06:09:11;;;;;;;56.97;30.93;;;;;;;-0.41;87.76;98173.28;489638;1149;104583;-40
2021/01/08 06:19:17;;;;;;;58.90;27.60;;;;;;;-0.40;87.28;98182.69;489686;1149;104988;-44
2021/01/08 06:39:46;;;;;;;64.40;31.20;;;;;;;-0.42;87.54;98185.46;490163;1148;104566;-41
2021/01/08 06:49:57;;;;;;;52.77;27.53;;;;;;;-0.36;87.34;98186.56;490364;1149;104562;-41
2021/01/08 07:00:01;;;;;;;61.53;27.95;;;;;;;-0.31;87.53;98187.66;489684;1149;104554;-39
2021/01/08 07:10:08;;;;;;;70.00;32.05;;;;;;;-0.31;87.24;98189.45;492122;1108;104940;-39
2021/01/08 07:20:17;;;;;;;94.60;42.23;;;;;;;-0.28;87.37;98189.10;490192;1148;104921;-40
2021/01/08 07:30:21;;;;;;;76.37;35.90;;;;;;;-0.19;87.53;98188.09;489946;1146;104519;-41
2021/01/08 07:40:25;;;;;;;72.10;35.07;;;;;;;-0.24;87.40;98184.37;490019;1148;104516;-42
2021/01/08 07:50:30;;;;;;;107.03;49.73;;;;;;;-0.05;87.40;98209.91;489699;1148;104540;-39
2021/01/08 08:00:35;;;;;;;62.63;32.27;;;;;;;0.09;87.52;98219.58;489865;1148;104524;-42
2021/01/08 08:10:41;;;;;;;83.07;41.33;;;;;;;0.72;88.17;98231.45;489830;1148;104566;-40
2021/01/08 08:31:03;;;;;;;88.35;44.75;;;;;;;3.21;87.75;98230.09;489718;1148;104926;-43
2021/01/08 08:41:14;;;;;;;74.50;39.53;;;;;;;3.40;86.51;98232.01;489569;1148;104605;-42
2021/01/08 08:51:23;;;;;;;63.13;33.00;;;;;;;2.27;85.39;98243.41;489769;1148;104830;-40
2021/01/08 09:01:37;;;;;;;;;;;;;;;1.72;86.10;98244.84;489984;1148;104552;-40
2021/01/08 09:11:56;;;;;;;70.85;36.10;;;;;;;1.42;86.76;98238.86;489765;1148;104521;-42
2021/01/08 09:22:04;;;;;;;46.90;26.37;;;;;;;1.30;86.40;98240.28;490098;1148;104863;-42
2021/01/08 09:32:10;;;;;;;63.40;32.73;;;;;;;1.10;86.94;98234.80;490603;1147;104567;-43
2021/01/08 09:42:18;;;;;;;47.40;25.33;;;;;;;1.00;86.48;98233.45;490027;1147;104530;-41
2021/01/08 09:52:28;;;;;;;64.47;32.97;;;;;;;0.92;86.83;98232.53;490303;1148;104521;-40
2021/01/08 10:02:53;;;;;;;64.95;31.05;;;;;;;0.91;86.81;98222.30;490008;1148;104436;-40
2021/01/08 10:13:00;;;;;;;48.50;25.55;;;;;;;0.98;86.85;98233.64;490135;1148;104783;-41
2021/01/08 10:23:10;;;;;;;56.70;27.65;;;;;;;1.02;86.71;98219.27;490243;1147;104917;-40
2021/01/08 10:33:15;;;;;;;43.05;24.32;;;;;;;1.12;86.32;98209.39;490412;1148;104652;-42
2021/01/08 10:43:20;;;;;;;74.97;35.40;;;;;;;1.26;86.63;98199.16;490132;1148;104530;-40
2021/01/08 10:53:25;;;;;;;64.83;32.93;;;;;;;1.52;86.41;98194.27;489786;1148;104917;-41
2021/01/08 11:03:31;;;;;;;45.35;24.00;;;;;;;1.86;85.81;98180.61;489998;1147;104520;-42
2021/01/08 11:13:36;;;;;;;43.53;21.83;;;;;;;2.04;85.78;98180.19;489889;1148;104554;-43
2021/01/08 11:23:41;;;;;;;35.20;20.15;;;;;;;2.13;85.54;98187.72;490264;1147;104543;-42
2021/01/08 11:33:44;;;;;;;45.73;24.77;;;;;;;2.02;85.83;98190.00;489603;1148;104526;-44
2021/01/08 11:43:48;;;;;;;30.30;16.33;;;;;;;1.92;85.15;98194.73;489753;1148;104530;-39
2021/01/08 11:53:53;;;;;;;31.83;19.30;;;;;;;1.85;85.23;98182.41;489987;1148;104568;-43
2021/01/08 12:03:59;;;;;;;31.10;17.57;;;;;;;2.01;85.20;98172.74;489827;1148;104872;-42
2021/01/08 12:14:04;;;;;;;42.70;22.73;;;;;;;2.05;85.23;98181.80;489670;1148;104882;-40
2021/01/08 12:24:09;;;;;;;32.15;17.95;;;;;;;1.99;84.94;98178.14;489824;1148;104524;-40
2021/01/08 12:34:16;;;;;;;32.10;17.23;;;;;;;2.08;84.72;98182.23;489897;1148;104830;-39
2021/01/08 12:44:21;;;;;;;31.17;16.33;;;;;;;2.27;84.69;98167.77;489688;1148;104630;-41
2021/01/08 12:54:26;;;;;;;27.20;15.20;;;;;;;2.13;84.32;98179.09;489902;1148;104611;-42
2021/01/08 13:04:31;;;;;;;35.70;19.90;;;;;;;1.92;84.22;98171.27;489818;1148;104527;-42
2021/01/08 13:14:37;;;;;;;31.40;17.73;;;;;;;1.80;84.31;98166.52;489819;1148;104573;-43
2021/01/08 13:24:42;;;;;;;33.80;16.83;;;;;;;1.69;84.38;98174.84;489691;1148;104919;-42
2021/01/08 13:34:47;;;;;;;25.65;14.65;;;;;;;1.60;84.40;98181.13;489831;1148;104509;-40
2021/01/08 13:44:51;;;;;;;38.33;17.17;;;;;;;1.45;84.24;98188.99;489602;1148;104627;-42
2021/01/08 13:54:57;;;;;;;35.60;16.83;;;;;;;1.26;84.26;98191.34;489866;1146;104866;-42
2021/01/08 14:05:02;;;;;;;36.17;16.27;;;;;;;1.18;83.89;98187.86;489702;1148;104519;-42
2021/01/08 14:15:09;;;;;;;36.33;18.40;;;;;;;1.09;84.24;98186.31;489846;1148;104924;-42
2021/01/08 14:25:12;;;;;;;49.57;23.83;;;;;;;0.93;84.14;98199.50;489999;1148;104578;-40
2021/01/08 14:35:17;;;;;;;58.30;25.27;;;;;;;0.76;84.19;98204.08;489625;1148;104521;-41
2021/01/08 14:45:21;;;;;;;55.57;24.77;;;;;;;0.60;84.30;98212.03;489975;1148;104827;-41
2021/01/08 14:55:26;;;;;;;60.35;27.50;;;;;;;0.46;84.48;98200.59;489757;1148;104905;-40
2021/01/08 15:05:31;;;;;;;76.95;33.95;;;;;;;0.50;84.48;98212.28;489661;1148;104631;-42
2021/01/08 15:15:36;;;;;;;106.85;45.70;;;;;;;0.51;84.60;98213.91;489861;1148;104550;-41
2021/01/08 15:25:42;;;;;;;113.30;49.20;;;;;;;0.44;84.59;98220.77;489743;1148;104591;-42
2021/01/08 15:35:47;;;;;;;109.55;47.95;;;;;;;0.43;84.13;98232.16;489597;1148;104596;-44
2021/01/08 15:45:52;;;;;;;108.03;48.33;;;;;;;0.46;84.59;98229.20;489796;1148;104786;-44
2021/01/08 15:55:59;;;;;;;127.93;56.83;;;;;;;0.44;84.26;98231.17;489763;1148;104556;-40
2021/01/08 16:06:03;;;;;;;145.80;67.00;;;;;;;0.26;84.27;98230.69;489893;1147;104531;-40
2021/01/08 16:16:07;;;;;;;117.93;55.57;;;;;;;0.27;84.59;98237.50;489565;1147;104908;-40
2021/01/08 16:26:13;;;;;;;127.75;58.20;;;;;;;0.44;84.80;98236.38;489898;1148;104829;-41
2021/01/08 16:36:18;;;;;;;150.97;69.30;;;;;;;0.48;84.69;98255.07;489694;1148;104793;-41
2021/01/08 16:46:23;;;;;;;144.37;66.07;;;;;;;0.35;84.72;98260.84;489711;1147;104852;-43
2021/01/08 16:56:28;;;;;;;151.97;67.57;;;;;;;0.42;84.76;98261.75;489733;1148;104515;-41
2021/01/08 17:06:34;;;;;;;138.37;66.37;;;;;;;0.46;84.89;98267.41;489499;1148;104576;-40
2021/01/08 17:16:39;;;;;;;182.27;84.23;;;;;;;0.41;84.79;98275.74;489975;1148;104559;-41
2021/01/08 17:26:46;;;;;;;145.13;63.80;;;;;;;0.39;84.94;98276.91;489886;1148;104524;-41
2021/01/08 17:36:52;;;;;;;144.40;66.70;;;;;;;0.42;84.64;98285.16;489677;1148;104559;-43
2021/01/08 17:47:15;;;;;;;148.03;62.80;;;;;;;0.36;84.66;98282.45;489809;1148;104551;-41
2021/01/08 17:57:21;;;;;;;109.85;52.40;;;;;;;0.35;84.68;98286.84;489825;1147;104962;-40
2021/01/08 18:07:25;;;;;;;147.90;63.60;;;;;;;0.38;85.11;98288.28;489678;1148;104853;-43
2021/01/08 18:17:30;;;;;;;136.07;60.53;;;;;;;0.37;84.43;98299.67;489842;1146;104517;-40
2021/01/08 18:27:39;;;;;;;153.23;67.63;;;;;;;0.33;85.19;98299.22;489695;1148;104846;-42
2021/01/08 18:37:44;;;;;;;107.27;49.67;;;;;;;0.27;84.47;98305.92;489797;1148;104537;-43
2021/01/08 18:47:49;;;;;;;94.00;43.75;;;;;;;0.31;84.66;98306.38;489732;1148;104635;-39
2021/01/08 18:57:53;;;;;;;106.57;47.30;;;;;;;0.27;84.88;98308.52;489883;1148;104520;-40
2021/01/08 19:07:59;;;;;;;85.90;40.70;;;;;;;0.15;84.55;98316.87;489563;1148;104521;-39
2021/01/08 19:18:04;;;;;;;84.05;35.25;;;;;;;0.13;84.81;98316.23;489587;1148;104524;-39
2021/01/08 19:28:09;;;;;;;65.30;32.00;;;;;;;0.11;84.64;98326.00;489873;1148;104543;-40
2021/01/08 19:38:13;;;;;;;59.17;29.77;;;;;;;0.12;84.83;98330.21;489618;1148;104556;-42
2021/01/08 19:48:18;;;;;;;65.93;31.53;;;;;;;0.20;85.17;98340.56;489686;1148;104554;-40
2021/01/08 19:58:24;;;;;;;50.43;27.43;;;;;;;0.18;85.02;98343.33;489820;1148;104598;-42
2021/01/08 20:08:28;;;;;;;106.47;43.20;;;;;;;0.17;85.14;98340.91;489800;1148;104628;-39
2021/01/08 20:18:34;;;;;;;58.93;29.00;;;;;;;0.12;85.39;98356.20;489898;1148;104649;-41
2021/01/08 20:28:40;;;;;;;53.27;26.67;;;;;;;0.09;85.19;98351.35;489722;1147;104668;-41
2021/01/08 20:38:45;;;;;;;83.53;39.00;;;;;;;0.17;85.25;98362.52;489825;1148;104524;-41
2021/01/08 20:48:50;;;;;;;58.47;27.87;;;;;;;0.15;84.97;98364.48;489822;1148;104575;-40
2021/01/08 20:58:55;;;;;;;46.70;22.90;;;;;;;0.21;85.03;98373.38;489806;1148;104892;-41
2021/01/08 21:08:59;;;;;;;62.47;28.47;;;;;;;0.19;85.42;98381.35;489769;1147;104553;-39
2021/01/08 21:19:04;;;;;;;40.27;21.73;;;;;;;0.19;84.92;98390.94;489662;1148;104598;-43
2021/01/08 21:29:10;;;;;;;37.80;20.20;;;;;;;0.15;85.28;98387.88;489868;1148;104783;-41
2021/01/08 21:39:15;;;;;;;46.63;24.80;;;;;;;0.19;85.56;98399.55;489771;1148;104628;-41
2021/01/08 21:49:20;;;;;;;40.20;21.90;;;;;;;0.17;85.19;98396.31;489856;1148;104566;-40
2021/01/08 21:59:26;;;;;;;44.37;22.37;;;;;;;0.30;85.58;98396.59;489657;1148;104886;-40
2021/01/08 22:09:30;;;;;;;50.97;25.73;;;;;;;0.30;85.38;98390.58;489547;1148;104960;-40
2021/01/08 22:19:36;;;;;;;53.10;27.60;;;;;;;0.36;85.50;98392.50;489740;1146;104489;-40
2021/01/08 22:29:41;;;;;;;65.97;32.87;;;;;;;0.26;85.33;98392.72;489714;1148;105030;-40
2021/01/08 22:39:46;;;;;;;57.70;31.30;;;;;;;0.21;85.67;98394.99;489557;1148;104521;-41
2021/01/08 22:49:52;;;;;;;70.30;35.10;;;;;;;0.19;85.40;98402.16;489657;1148;104479;-42
2021/01/08 22:59:57;;;;;;;62.57;30.10;;;;;;;0.18;85.48;98391.92;489670;1148;104601;-42
2021/01/08 23:10:01;;;;;;;50.80;24.57;;;;;;;0.20;85.96;98395.16;489811;1146;104519;-42
2021/01/08 23:20:05;;;;;;;59.70;28.93;;;;;;;0.19;85.67;98404.75;489801;1148;104579;-42
2021/01/08 23:30:16;;;;;;;48.70;25.87;;;;;;;0.07;85.48;98410.50;489742;1148;104903;-40
2021/01/08 23:40:21;;;;;;;57.63;28.73;;;;;;;-0.04;86.18;98417.67;489733;1148;104870;-41
2021/01/08 23:50:26;;;;;;;47.20;23.43;;;;;;;0.01;85.56;98424.99;489894;1148;104570;-42
